Time;durP1;ratioP1;P1;durP2;ratioP2;P2;SDS_P1;SDS_P2;PMS_P1;PMS_P2;Temp;Humidity;BMP_temperature;BMP_pressure;BME280_temperature;BME280_humidity;BME280_pressure;Samples;Min_cycle;Max_cycle;Signal;HPM_P1;HPM_P2
2022/10/18 00:01:52;;;;;;;;;;;19.00;99.90;;;;;;5094030;28;19923;-70
2022/10/18 00:04:19;;;;;;;;;;;19.00;99.90;;;;;;5094055;28;20280;-68
2022/10/18 00:06:46;;;;;;;;;;;19.10;99.90;;;;;;5094270;28;19908;-69
2022/10/18 00:09:13;;;;;;;;;;;19.30;99.90;;;;;;5094092;28;20284;-69
2022/10/18 00:11:39;;;;;;;;;;;19.40;99.90;;;;;;5093846;28;20015;-70
2022/10/18 00:14:06;;;;;;;;;;;19.40;99.90;;;;;;5093846;28;19915;-68
2022/10/18 00:16:32;;;;;;;;;;;19.30;99.90;;;;;;5093352;28;19908;-69
2022/10/18 00:18:59;;;;;;;;;;;19.30;99.90;;;;;;5093849;28;19946;-70
2022/10/18 00:21:26;;;;;;;;;;;19.40;99.90;;;;;;5093526;28;20285;-69
2022/10/18 00:23:53;;;;;;;;;;;19.60;99.90;;;;;;5093912;28;19908;-69
2022/10/18 00:26:21;;;;;;;;;;;19.70;99.90;;;;;;5093848;28;19957;-69
2022/10/18 00:28:50;;;;;;;;;;;19.80;99.90;;;;;;5093863;28;19908;-69
2022/10/18 00:31:18;;;;;;;;;;;19.90;99.90;;;;;;5093486;28;19931;-68
2022/10/18 00:33:46;;;;;;;;;;;20.10;99.90;;;;;;5093459;28;19920;-67
2022/10/18 00:36:13;;;;;;;;;;;20.40;99.90;;;;;;5075507;28;19915;-70
2022/10/18 00:38:40;;;;;;;;;;;20.50;99.90;;;;;;5093317;28;19987;-68
2022/10/18 00:41:08;;;;;;;;;;;20.70;99.90;;;;;;5093698;28;19920;-68
2022/10/18 00:43:53;;;;;;;;;;;20.90;99.90;;;;;;5093316;28;19908;-67
2022/10/18 00:46:20;;;;;;;;;;;21.10;99.90;;;;;;5093690;28;19908;-68
2022/10/18 00:48:47;;;;;;;;;;;21.20;99.90;;;;;;5093398;28;19931;-70
2022/10/18 00:51:14;;;;;;;;;;;21.00;99.90;;;;;;5094001;28;19918;-68
2022/10/18 00:53:41;;;;;;;;;;;20.90;99.90;;;;;;5093166;28;19961;-67
2022/10/18 00:56:07;;;;;;;;;;;20.80;99.90;;;;;;5093230;28;19914;-68
2022/10/18 00:58:34;;;;;;;;;;;20.80;99.90;;;;;;5093190;28;19995;-68
2022/10/18 01:01:01;;;;;;;;;;;20.90;99.90;;;;;;5093054;28;19917;-68
2022/10/18 01:03:27;;;;;;;;;;;20.90;99.90;;;;;;5092995;28;20364;-69
2022/10/18 01:05:54;;;;;;;;;;;20.90;99.90;;;;;;5093225;28;19908;-67
2022/10/18 01:08:30;;;;;;;;;;;21.00;99.90;;;;;;5093325;28;19908;-67
2022/10/18 01:11:14;;;;;;;;;;;21.10;99.90;;;;;;5093110;28;19908;-67
2022/10/18 01:13:41;;;;;;;;;;;21.10;99.90;;;;;;5092852;28;19973;-67
2022/10/18 01:16:09;;;;;;;;;;;21.20;99.90;;;;;;5092723;28;19995;-67
2022/10/18 01:18:43;;;;;;;;;;;21.30;99.90;;;;;;5092830;28;20011;-67
2022/10/18 01:21:19;;;;;;;;;;;21.40;99.90;;;;;;5092914;28;19916;-67
2022/10/18 01:24:14;;;;;;;;;;;21.50;99.90;;;;;;5092779;28;19963;-68
2022/10/18 01:26:52;;;;;;;;;;;21.60;99.40;;;;;;5092870;28;20420;-67
2022/10/18 01:29:27;;;;;;;;;;;21.50;99.00;;;;;;5092718;28;19958;-68
2022/10/18 01:31:59;;;;;;;;;;;21.60;99.80;;;;;;5092587;28;19912;-67
2022/10/18 01:34:27;;;;;;;;;;;21.80;99.90;;;;;;5091936;28;19908;-67
2022/10/18 01:36:55;;;;;;;;;;;21.90;99.30;;;;;;5092100;28;19912;-67
2022/10/18 01:39:27;;;;;;;;;;;22.10;98.80;;;;;;5092801;28;20382;-69
2022/10/18 01:41:55;;;;;;;;;;;22.30;99.00;;;;;;5092851;28;20432;-69
2022/10/18 01:44:23;;;;;;;;;;;22.40;98.40;;;;;;5092646;28;19912;-74
2022/10/18 01:46:52;;;;;;;;;;;22.40;98.30;;;;;;5092220;28;19908;-70
2022/10/18 01:49:18;;;;;;;;;;;22.50;98.50;;;;;;5092535;28;19950;-68
2022/10/18 01:51:45;;;;;;;;;;;22.60;97.60;;;;;;5092279;28;20003;-69
2022/10/18 01:54:14;;;;;;;;;;;22.50;97.90;;;;;;5091848;28;19981;-68
2022/10/18 01:56:49;;;;;;;;;;;22.20;98.10;;;;;;5092097;28;19923;-68
2022/10/18 01:59:16;;;;;;;;;;;21.90;98.70;;;;;;5092433;28;20010;-68
2022/10/18 02:01:48;;;;;;;;;;;21.70;98.20;;;;;;5092789;28;19923;-68
2022/10/18 02:04:28;;;;;;;;;;;21.50;99.20;;;;;;5092392;28;19908;-69
2022/10/18 02:06:58;;;;;;;;;;;21.40;99.30;;;;;;5092750;28;19915;-69
2022/10/18 02:09:30;;;;;;;;;;;21.30;99.10;;;;;;5092297;28;20387;-69
2022/10/18 02:11:57;;;;;;;;;;;21.30;99.10;;;;;;5092016;28;19931;-69
2022/10/18 02:14:25;;;;;;;;;;;21.30;99.60;;;;;;5091669;28;19985;-69
2022/10/18 02:16:54;;;;;;;;;;;21.10;99.90;;;;;;5092136;28;19915;-69
2022/10/18 02:19:35;;;;;;;;;;;21.10;99.80;;;;;;5092226;28;19912;-69
2022/10/18 02:22:03;;;;;;;;;;;20.80;99.90;;;;;;5092141;28;19917;-69
2022/10/18 02:24:33;;;;;;;;;;;20.70;99.90;;;;;;5091894;28;19908;-71
2022/10/18 02:27:00;;;;;;;;;;;20.50;99.90;;;;;;5091900;28;19915;-70
2022/10/18 02:29:27;;;;;;;;;;;20.30;99.90;;;;;;5092270;28;19908;-68
2022/10/18 02:32:20;;;;;;;;;;;20.20;99.90;;;;;;5091691;28;19992;-70
2022/10/18 02:34:50;;;;;;;;;;;20.00;99.90;;;;;;5086791;28;19912;-70
2022/10/18 02:37:17;;;;;;;;;;;20.00;99.90;;;;;;5092066;28;19912;-72
2022/10/18 02:39:48;;;;;;;;;;;19.90;99.90;;;;;;5092197;28;19919;-71
2022/10/18 02:42:15;;;;;;;;;;;19.80;99.90;;;;;;5095696;28;20320;-70
2022/10/18 02:44:42;;;;;;;;;;;19.90;99.90;;;;;;5095085;28;19915;-69
2022/10/18 02:47:09;;;;;;;;;;;20.00;99.90;;;;;;5095606;28;19914;-70
2022/10/18 02:49:36;;;;;;;;;;;20.00;99.90;;;;;;5095456;28;20325;-70
2022/10/18 02:52:03;;;;;;;;;;;20.10;99.90;;;;;;5095579;28;19955;-69
2022/10/18 02:54:29;;;;;;;;;;;20.10;99.90;;;;;;5095072;28;20280;-70
2022/10/18 02:56:56;;;;;;;;;;;20.10;99.90;;;;;;5095348;28;20375;-69
2022/10/18 02:59:23;;;;;;;;;;;20.10;99.90;;;;;;5095330;28;19943;-70
2022/10/18 03:01:49;;;;;;;;;;;20.20;99.90;;;;;;5094835;28;20311;-69
2022/10/18 03:04:16;;;;;;;;;;;20.30;99.90;;;;;;5094744;28;19951;-70
2022/10/18 03:06:42;;;;;;;;;;;20.40;99.90;;;;;;5094619;28;19966;-70
2022/10/18 03:09:09;;;;;;;;;;;20.50;99.90;;;;;;5095004;28;19961;-69
2022/10/18 03:11:36;;;;;;;;;;;20.40;99.90;;;;;;5094495;28;19912;-68
2022/10/18 03:14:02;;;;;;;;;;;20.30;99.90;;;;;;5095027;28;19916;-70
2022/10/18 03:16:29;;;;;;;;;;;20.30;99.90;;;;;;5094756;28;19915;-68
2022/10/18 03:18:55;;;;;;;;;;;20.20;99.90;;;;;;5094895;28;19999;-69
2022/10/18 03:21:22;;;;;;;;;;;20.00;99.90;;;;;;5095016;28;20003;-69
2022/10/18 03:23:49;;;;;;;;;;;20.10;99.90;;;;;;5095088;28;20061;-72
2022/10/18 03:26:15;;;;;;;;;;;20.10;99.90;;;;;;5095032;28;19991;-74
2022/10/18 03:28:42;;;;;;;;;;;20.20;99.90;;;;;;5094764;28;20057;-69
2022/10/18 03:31:09;;;;;;;;;;;20.40;99.90;;;;;;5094758;28;19943;-68
2022/10/18 03:33:35;;;;;;;;;;;20.50;99.90;;;;;;5094643;28;19912;-70
2022/10/18 03:36:02;;;;;;;;;;;20.40;99.90;;;;;;5094679;28;19904;-68
2022/10/18 03:38:28;;;;;;;;;;;20.40;99.90;;;;;;5094471;28;19908;-72
2022/10/18 03:40:55;;;;;;;;;;;20.30;99.90;;;;;;5076113;28;20277;-71
2022/10/18 03:43:22;;;;;;;;;;;20.20;99.90;;;;;;5094130;28;19915;-71
2022/10/18 03:45:49;;;;;;;;;;;20.20;99.90;;;;;;5094545;28;20004;-70
2022/10/18 03:48:15;;;;;;;;;;;20.10;99.90;;;;;;5094047;28;19915;-71
2022/10/18 03:50:42;;;;;;;;;;;20.00;99.90;;;;;;5092373;28;20343;-72
2022/10/18 03:53:09;;;;;;;;;;;20.00;99.90;;;;;;5090821;28;19915;-70
2022/10/18 03:55:36;;;;;;;;;;;20.00;99.90;;;;;;5093265;28;20353;-70
2022/10/18 03:58:03;;;;;;;;;;;19.90;99.90;;;;;;5093472;28;19916;-72
2022/10/18 04:00:29;;;;;;;;;;;19.90;99.90;;;;;;5093203;28;20004;-69
2022/10/18 04:02:56;;;;;;;;;;;19.80;99.90;;;;;;5089428;28;20369;-70
2022/10/18 04:05:23;;;;;;;;;;;19.70;99.90;;;;;;5083790;28;19919;-73
2022/10/18 04:07:50;;;;;;;;;;;19.70;99.90;;;;;;5082331;28;20392;-69
2022/10/18 04:10:17;;;;;;;;;;;19.60;99.90;;;;;;5079143;28;19908;-70
2022/10/18 04:12:44;;;;;;;;;;;19.60;99.90;;;;;;5090232;28;19920;-68
2022/10/18 04:15:10;;;;;;;;;;;19.60;99.90;;;;;;5083857;28;19939;-68
2022/10/18 04:17:37;;;;;;;;;;;19.60;99.90;;;;;;5082209;28;19916;-72
2022/10/18 04:20:04;;;;;;;;;;;19.60;99.90;;;;;;5081060;28;19924;-69
2022/10/18 04:22:31;;;;;;;;;;;19.50;99.90;;;;;;5085061;28;19908;-70
2022/10/18 04:24:57;;;;;;;;;;;19.50;99.90;;;;;;5080524;28;19920;-70
2022/10/18 04:27:24;;;;;;;;;;;19.40;99.90;;;;;;5083282;28;19909;-71
2022/10/18 04:29:51;;;;;;;;;;;19.40;99.90;;;;;;5082686;28;19916;-71
2022/10/18 04:32:18;;;;;;;;;;;19.30;99.90;;;;;;5085598;28;19908;-72
2022/10/18 04:34:44;;;;;;;;;;;19.30;99.90;;;;;;5082321;28;19919;-68
2022/10/18 04:37:11;;;;;;;;;;;19.40;99.90;;;;;;5082687;28;19908;-69
2022/10/18 04:39:37;;;;;;;;;;;19.40;99.90;;;;;;5083420;28;20004;-68
2022/10/18 04:42:04;;;;;;;;;;;19.50;99.90;;;;;;5085007;28;20389;-68
2022/10/18 04:44:31;;;;;;;;;;;19.60;99.90;;;;;;5082840;28;19912;-69
2022/10/18 04:46:57;;;;;;;;;;;19.60;99.90;;;;;;5082049;28;19912;-69
2022/10/18 04:49:24;;;;;;;;;;;19.50;99.90;;;;;;5082830;28;19915;-70
2022/10/18 04:51:50;;;;;;;;;;;19.50;99.90;;;;;;5082313;28;19954;-68
2022/10/18 04:54:17;;;;;;;;;;;19.50;99.90;;;;;;5083862;28;20352;-69
2022/10/18 04:56:44;;;;;;;;;;;19.40;99.90;;;;;;5063018;28;21269;-70
2022/10/18 04:59:10;;;;;;;;;;;19.50;99.90;;;;;;5081417;28;19959;-70
2022/10/18 05:01:37;;;;;;;;;;;19.50;99.90;;;;;;5085767;28;20015;-70
2022/10/18 05:04:03;;;;;;;;;;;19.50;99.90;;;;;;5082487;28;20002;-70
2022/10/18 05:06:30;;;;;;;;;;;19.50;99.90;;;;;;5083763;28;19916;-70
2022/10/18 05:08:57;;;;;;;;;;;19.60;99.90;;;;;;5082767;28;19950;-69
2022/10/18 05:11:23;;;;;;;;;;;19.60;99.90;;;;;;5083358;28;20003;-69
2022/10/18 05:13:50;;;;;;;;;;;19.60;99.90;;;;;;5080368;28;19912;-69
2022/10/18 05:16:17;;;;;;;;;;;19.60;99.90;;;;;;5091703;28;19923;-70
2022/10/18 05:18:43;;;;;;;;;;;19.50;99.90;;;;;;5089235;28;19915;-69
2022/10/18 05:21:11;;;;;;;;;;;19.50;99.90;;;;;;5089024;28;19920;-69
2022/10/18 05:23:38;;;;;;;;;;;19.40;99.90;;;;;;5076603;28;19908;-69
2022/10/18 05:26:05;;;;;;;;;;;19.30;99.90;;;;;;5086054;28;20439;-68
2022/10/18 05:28:32;;;;;;;;;;;19.30;99.90;;;;;;5092298;28;19912;-69
2022/10/18 05:31:05;;;;;;;;;;;19.20;99.90;;;;;;5090653;28;20272;-69
2022/10/18 05:33:32;;;;;;;;;;;19.20;99.90;;;;;;5091501;28;19947;-68
2022/10/18 05:35:59;;;;;;;;;;;19.20;99.90;;;;;;5091779;28;20423;-67
2022/10/18 05:38:26;;;;;;;;;;;19.20;99.90;;;;;;5091518;28;20011;-66
2022/10/18 05:40:52;;;;;;;;;;;19.20;99.90;;;;;;5091440;28;20349;-69
2022/10/18 05:43:19;;;;;;;;;;;19.10;99.90;;;;;;5091259;28;19912;-69
2022/10/18 05:45:49;;;;;;;;;;;19.20;99.90;;;;;;5091055;28;19908;-69
2022/10/18 05:48:16;;;;;;;;;;;19.20;99.90;;;;;;5091352;28;20345;-69
2022/10/18 05:50:43;;;;;;;;;;;19.30;99.90;;;;;;5091325;28;19916;-70
2022/10/18 05:53:10;;;;;;;;;;;19.30;99.90;;;;;;5091877;28;19937;-69
2022/10/18 05:55:36;;;;;;;;;;;19.20;99.90;;;;;;5091592;28;19994;-66
2022/10/18 05:58:03;;;;;;;;;;;19.20;99.90;;;;;;5091945;28;19919;-70
2022/10/18 06:00:30;;;;;;;;;;;19.20;99.90;;;;;;5091170;28;19963;-70
2022/10/18 06:02:57;;;;;;;;;;;19.30;99.90;;;;;;5091527;28;19950;-69
2022/10/18 06:05:23;;;;;;;;;;;19.30;99.90;;;;;;5091029;28;19908;-66
2022/10/18 06:07:50;;;;;;;;;;;19.30;99.90;;;;;;5091733;28;19961;-67
2022/10/18 06:10:17;;;;;;;;;;;19.30;99.90;;;;;;5091231;28;19947;-69
2022/10/18 06:12:43;;;;;;;;;;;19.30;99.90;;;;;;5092041;28;20261;-70
2022/10/18 06:15:10;;;;;;;;;;;19.30;99.90;;;;;;5092422;28;19920;-69
2022/10/18 06:17:36;;;;;;;;;;;19.30;99.90;;;;;;5095485;28;19950;-70
2022/10/18 06:20:03;;;;;;;;;;;19.30;99.90;;;;;;5095230;28;19913;-70
2022/10/18 06:22:30;;;;;;;;;;;19.30;99.90;;;;;;5095357;28;19920;-69
2022/10/18 06:24:56;;;;;;;;;;;19.30;99.90;;;;;;5094796;28;19912;-67
2022/10/18 06:27:23;;;;;;;;;;;19.40;99.90;;;;;;5095070;28;19953;-69
2022/10/18 06:29:50;;;;;;;;;;;19.30;99.90;;;;;;5095151;28;19908;-70
2022/10/18 06:32:17;;;;;;;;;;;19.30;99.90;;;;;;5094369;28;19908;-70
2022/10/18 06:34:44;;;;;;;;;;;19.30;99.90;;;;;;5094916;28;19999;-68
2022/10/18 06:37:10;;;;;;;;;;;19.30;99.90;;;;;;5095461;28;20331;-70
2022/10/18 06:39:37;;;;;;;;;;;19.30;99.90;;;;;;5094831;28;20069;-69
2022/10/18 06:42:03;;;;;;;;;;;19.20;99.90;;;;;;5094712;28;19924;-69
2022/10/18 06:44:30;;;;;;;;;;;19.20;99.90;;;;;;5094877;28;19955;-70
2022/10/18 06:46:57;;;;;;;;;;;19.20;99.90;;;;;;5094970;28;19951;-69
2022/10/18 06:49:23;;;;;;;;;;;19.30;99.90;;;;;;5094178;28;19946;-67
2022/10/18 06:51:50;;;;;;;;;;;19.30;99.90;;;;;;5094996;28;20502;-68
2022/10/18 06:54:16;;;;;;;;;;;19.20;99.90;;;;;;5094279;28;19908;-69
2022/10/18 06:56:43;;;;;;;;;;;19.20;99.90;;;;;;5094816;28;19908;-69
2022/10/18 06:59:10;;;;;;;;;;;19.20;99.90;;;;;;5095021;28;19915;-68
2022/10/18 07:01:36;;;;;;;;;;;19.20;99.90;;;;;;5094301;28;19963;-68
2022/10/18 07:04:03;;;;;;;;;;;19.20;99.90;;;;;;5094121;28;19912;-69
2022/10/18 07:06:29;;;;;;;;;;;19.10;99.90;;;;;;5094319;28;19957;-69
2022/10/18 07:08:56;;;;;;;;;;;19.20;99.90;;;;;;5094436;28;19915;-67
2022/10/18 07:11:24;;;;;;;;;;;19.10;99.90;;;;;;5094320;28;20275;-69
2022/10/18 07:13:53;;;;;;;;;;;19.10;99.90;;;;;;5093713;28;19916;-68
2022/10/18 07:16:19;;;;;;;;;;;19.10;99.90;;;;;;5092616;28;19916;-68
2022/10/18 07:18:50;;;;;;;;;;;19.10;99.90;;;;;;5093080;28;20007;-68
2022/10/18 07:21:21;;;;;;;;;;;19.00;99.90;;;;;;5093266;28;19916;-67
2022/10/18 07:23:48;;;;;;;;;;;19.00;99.90;;;;;;5092872;28;19953;-68
2022/10/18 07:26:26;;;;;;;;;;;19.00;99.90;;;;;;5093260;28;19919;-67
2022/10/18 07:28:54;;;;;;;;;;;18.90;99.90;;;;;;5093067;28;19919;-68
2022/10/18 07:31:21;;;;;;;;;;;19.00;99.90;;;;;;5092522;28;19908;-68
2022/10/18 07:33:48;;;;;;;;;;;19.00;99.90;;;;;;5092623;28;19986;-67
2022/10/18 07:36:15;;;;;;;;;;;19.00;99.90;;;;;;5093002;28;19999;-67
2022/10/18 07:38:42;;;;;;;;;;;18.90;99.90;;;;;;5091981;28;19912;-67
2022/10/18 07:41:10;;;;;;;;;;;18.90;99.90;;;;;;5092093;28;20012;-67
2022/10/18 07:43:40;;;;;;;;;;;18.90;99.90;;;;;;5092446;28;19908;-67
2022/10/18 07:46:06;;;;;;;;;;;18.90;99.90;;;;;;5092897;28;20422;-67
2022/10/18 07:48:33;;;;;;;;;;;18.90;99.90;;;;;;5092158;28;19946;-68
2022/10/18 07:51:00;;;;;;;;;;;18.80;99.90;;;;;;5073790;28;19915;-68
2022/10/18 07:53:28;;;;;;;;;;;18.80;99.90;;;;;;5092692;28;19934;-67
2022/10/18 07:56:01;;;;;;;;;;;18.80;99.90;;;;;;5092503;28;20362;-67
2022/10/18 07:58:28;;;;;;;;;;;18.80;99.90;;;;;;5091530;28;19904;-68
2022/10/18 08:00:55;;;;;;;;;;;18.80;99.90;;;;;;5088173;28;19924;-68
2022/10/18 08:03:22;;;;;;;;;;;18.80;99.90;;;;;;5090505;28;19908;-68
2022/10/18 08:05:52;;;;;;;;;;;18.70;99.90;;;;;;5092226;28;19962;-68
2022/10/18 08:08:20;;;;;;;;;;;18.70;99.90;;;;;;5092249;28;19931;-67
2022/10/18 08:10:47;;;;;;;;;;;18.70;99.90;;;;;;5091927;28;20582;-67
2022/10/18 08:13:14;;;;;;;;;;;18.70;99.90;;;;;;5025829;28;1870166;-68
2022/10/18 08:15:41;;;;;;;;;;;18.70;99.90;;;;;;5075629;28;19920;-68
2022/10/18 08:18:07;;;;;;;;;;;18.70;99.90;;;;;;5093110;28;19908;-67
2022/10/18 08:20:35;;;;;;;;;;;18.60;99.90;;;;;;5092869;28;20003;-68
2022/10/18 08:23:03;;;;;;;;;;;18.70;99.90;;;;;;5092896;28;19962;-67
2022/10/18 08:25:29;;;;;;;;;;;18.60;99.90;;;;;;5092639;28;19916;-67
2022/10/18 08:27:56;;;;;;;;;;;18.60;99.90;;;;;;5093075;28;20412;-68
2022/10/18 08:30:23;;;;;;;;;;;18.60;99.90;;;;;;5092137;28;19908;-67
2022/10/18 08:32:49;;;;;;;;;;;18.60;99.90;;;;;;5092138;28;20276;-68
2022/10/18 08:35:16;;;;;;;;;;;18.60;99.90;;;;;;5092420;28;19908;-68
2022/10/18 08:37:44;;;;;;;;;;;18.60;99.90;;;;;;5092156;28;20425;-67
2022/10/18 08:40:12;;;;;;;;;;;18.60;99.90;;;;;;5092997;28;19912;-67
2022/10/18 08:42:39;;;;;;;;;;;18.50;99.90;;;;;;5092452;28;19912;-67
2022/10/18 08:45:06;;;;;;;;;;;18.50;99.90;;;;;;5092563;28;19909;-68
2022/10/18 08:47:36;;;;;;;;;;;18.50;99.90;;;;;;5092314;28;19962;-68
2022/10/18 08:50:05;;;;;;;;;;;18.50;99.90;;;;;;5092425;28;19908;-67
2022/10/18 08:52:50;;;;;;;;;;;18.50;99.90;;;;;;5091751;28;19943;-67
2022/10/18 08:55:16;;;;;;;;;;;18.50;99.90;;;;;;5092160;28;19908;-68
2022/10/18 08:57:44;;;;;;;;;;;18.50;99.90;;;;;;5074085;28;19993;-66
2022/10/18 09:00:15;;;;;;;;;;;18.50;99.90;;;;;;5073934;28;20386;-66
2022/10/18 09:02:51;;;;;;;;;;;18.40;99.90;;;;;;5091601;28;19914;-67
2022/10/18 09:05:32;;;;;;;;;;;18.50;99.90;;;;;;5092249;28;19962;-67
2022/10/18 09:08:08;;;;;;;;;;;18.40;99.90;;;;;;5092283;28;20402;-66
2022/10/18 09:10:44;;;;;;;;;;;18.40;99.90;;;;;;5091991;28;19908;-68
2022/10/18 09:13:14;;;;;;;;;;;18.50;99.90;;;;;;5092050;28;19912;-68
2022/10/18 09:15:46;;;;;;;;;;;18.50;99.90;;;;;;5092473;28;19916;-67
2022/10/18 09:18:19;;;;;;;;;;;18.40;99.90;;;;;;5092387;28;19908;-67
2022/10/18 09:20:45;;;;;;;;;;;18.50;99.90;;;;;;5091634;28;19916;-67
2022/10/18 09:23:24;;;;;;;;;;;18.50;99.90;;;;;;5092082;28;19919;-67
2022/10/18 09:26:05;;;;;;;;;;;18.60;99.90;;;;;;5092615;28;19911;-67
2022/10/18 09:28:34;;;;;;;;;;;18.60;99.90;;;;;;5092300;28;20057;-67
2022/10/18 09:31:19;;;;;;;;;;;18.60;99.90;;;;;;5091974;28;19912;-67
2022/10/18 09:33:58;;;;;;;;;;;18.60;99.90;;;;;;5091379;28;19908;-66
2022/10/18 09:36:34;;;;;;;;;;;18.60;99.90;;;;;;5092079;28;20373;-67
2022/10/18 09:39:08;;;;;;;;;;;18.60;99.90;;;;;;5092306;28;19915;-68
2022/10/18 09:41:44;;;;;;;;;;;18.60;99.90;;;;;;5091267;28;20343;-68
2022/10/18 09:44:34;;;;;;;;;;;18.60;99.90;;;;;;5091685;28;19955;-68
2022/10/18 09:47:13;;;;;;;;;;;18.60;99.90;;;;;;5079120;28;19916;-68
2022/10/18 09:49:42;;;;;;;;;;;18.50;99.90;;;;;;5091173;28;19909;-67
2022/10/18 09:52:15;;;;;;;;;;;18.50;99.90;;;;;;5092196;28;19969;-67
2022/10/18 09:55:02;;;;;;;;;;;18.50;99.90;;;;;;5091491;28;19912;-67
2022/10/18 09:57:34;;;;;;;;;;;18.50;99.90;;;;;;5091872;28;19908;-68
2022/10/18 10:00:02;;;;;;;;;;;18.50;99.90;;;;;;5092007;28;19933;-67
2022/10/18 10:02:29;;;;;;;;;;;18.50;99.90;;;;;;5091565;28;19908;-67
2022/10/18 10:04:55;;;;;;;;;;;18.60;99.90;;;;;;5091657;28;19997;-67
2022/10/18 10:07:33;;;;;;;;;;;18.60;99.90;;;;;;5091736;28;20017;-67
2022/10/18 10:10:07;;;;;;;;;;;18.50;99.90;;;;;;5091919;28;19908;-69
2022/10/18 10:12:38;;;;;;;;;;;18.50;99.90;;;;;;5091131;28;19915;-68
2022/10/18 10:15:09;;;;;;;;;;;18.50;99.90;;;;;;5090909;28;20303;-68
2022/10/18 10:17:36;;;;;;;;;;;18.50;99.90;;;;;;5090721;28;19916;-68
2022/10/18 10:20:19;;;;;;;;;;;18.60;99.90;;;;;;5090934;28;19908;-67
2022/10/18 10:22:46;;;;;;;;;;;18.50;99.90;;;;;;5090644;28;19916;-68
2022/10/18 10:25:21;;;;;;;;;;;18.50;99.90;;;;;;5091509;28;20262;-68
2022/10/18 10:27:48;;;;;;;;;;;18.50;99.90;;;;;;5091969;28;20276;-68
2022/10/18 10:30:21;;;;;;;;;;;18.50;99.90;;;;;;5091842;28;19985;-68
2022/10/18 10:32:49;;;;;;;;;;;18.50;99.90;;;;;;5090146;28;19927;-68
2022/10/18 10:35:23;;;;;;;;;;;18.50;99.90;;;;;;5089337;28;19985;-68
2022/10/18 10:37:53;;;;;;;;;;;18.50;99.90;;;;;;5080089;28;19949;-68
2022/10/18 10:40:21;;;;;;;;;;;18.50;99.90;;;;;;5066956;28;19943;-67
2022/10/18 10:43:14;;;;;;;;;;;18.50;99.90;;;;;;5079533;28;19912;-69
2022/10/18 10:45:43;;;;;;;;;;;18.50;99.90;;;;;;5071149;28;19916;-68
2022/10/18 10:48:14;;;;;;;;;;;18.50;99.90;;;;;;5070086;28;19908;-68
2022/10/18 10:51:04;;;;;;;;;;;18.50;99.90;;;;;;5070392;28;19908;-69
2022/10/18 10:53:51;;;;;;;;;;;18.50;99.90;;;;;;5059922;28;19913;-67
2022/10/18 10:56:22;;;;;;;;;;;18.50;99.90;;;;;;5071261;28;19908;-68
2022/10/18 10:58:50;;;;;;;;;;;18.50;99.90;;;;;;5070201;28;19943;-68
2022/10/18 11:01:21;;;;;;;;;;;18.50;99.90;;;;;;5072329;28;19923;-67
2022/10/18 11:03:49;;;;;;;;;;;18.50;99.90;;;;;;5074608;28;19909;-68
2022/10/18 11:06:31;;;;;;;;;;;18.50;99.90;;;;;;5074971;28;19915;-67
2022/10/18 11:08:58;;;;;;;;;;;18.50;99.90;;;;;;5074966;28;20388;-67
2022/10/18 11:11:32;;;;;;;;;;;18.50;99.90;;;;;;5074935;28;19912;-68
2022/10/18 11:14:08;;;;;;;;;;;18.50;99.90;;;;;;5074683;28;20434;-67
2022/10/18 11:16:53;;;;;;;;;;;18.50;99.90;;;;;;5075142;28;20308;-68
2022/10/18 11:19:45;;;;;;;;;;;18.50;99.90;;;;;;5074847;28;19978;-66
2022/10/18 11:22:15;;;;;;;;;;;18.50;99.90;;;;;;5043812;28;20368;-66
2022/10/18 11:24:42;;;;;;;;;;;18.50;99.90;;;;;;5057047;28;19962;-67
2022/10/18 11:27:12;;;;;;;;;;;18.50;99.90;;;;;;5075007;28;19948;-65
2022/10/18 11:29:42;;;;;;;;;;;18.50;99.90;;;;;;5075045;28;19913;-66
2022/10/18 11:32:44;;;;;;;;;;;18.50;99.90;;;;;;5074894;28;19908;-67
2022/10/18 11:35:45;;;;;;;;;;;18.50;99.90;;;;;;4993183;28;19946;-66
2022/10/18 11:38:39;;;;;;;;;;;18.50;99.90;;;;;;4973928;28;19950;-65
2022/10/18 11:41:16;;;;;;;;;;;18.30;99.90;;;;;;5072576;28;20396;-67
2022/10/18 11:43:55;;;;;;;;;;;18.40;99.90;;;;;;5074230;28;19955;-68
2022/10/18 11:46:22;;;;;;;;;;;18.40;99.90;;;;;;5074088;28;19944;-67
2022/10/18 11:49:07;;;;;;;;;;;18.40;99.90;;;;;;5074555;28;19915;-69
2022/10/18 11:51:40;;;;;;;;;;;18.40;99.90;;;;;;5074259;28;19930;-68
2022/10/18 11:54:09;;;;;;;;;;;18.30;99.90;;;;;;5073887;28;19940;-68
2022/10/18 11:56:36;;;;;;;;;;;18.30;99.90;;;;;;5074189;28;20396;-69
2022/10/18 11:59:18;;;;;;;;;;;18.30;99.90;;;;;;5074162;28;19954;-68
2022/10/18 12:02:20;;;;;;;;;;;18.30;99.90;;;;;;5073760;28;20380;-68
2022/10/18 12:04:51;;;;;;;;;;;18.30;99.90;;;;;;4992613;28;19936;-68
2022/10/18 12:07:19;;;;;;;;;;;18.30;99.90;;;;;;5060619;28;19912;-68
2022/10/18 12:09:47;;;;;;;;;;;18.30;99.90;;;;;;5073970;28;20373;-68
2022/10/18 12:12:23;;;;;;;;;;;18.30;99.90;;;;;;5073344;28;19909;-68
2022/10/18 12:14:52;;;;;;;;;;;18.30;99.90;;;;;;5073770;28;19931;-68
2022/10/18 12:17:22;;;;;;;;;;;18.30;99.90;;;;;;5073750;28;19915;-69
2022/10/18 12:19:49;;;;;;;;;;;18.30;99.90;;;;;;5073766;28;19909;-68
2022/10/18 12:22:18;;;;;;;;;;;18.30;99.90;;;;;;5073583;28;19943;-67
2022/10/18 12:24:45;;;;;;;;;;;18.30;99.90;;;;;;5073613;28;19952;-67
2022/10/18 12:27:13;;;;;;;;;;;18.30;99.90;;;;;;5073875;28;20352;-67
2022/10/18 12:29:47;;;;;;;;;;;18.20;99.90;;;;;;5073618;28;19908;-67
2022/10/18 12:32:19;;;;;;;;;;;18.30;99.90;;;;;;5073572;28;20360;-67
2022/10/18 12:34:52;;;;;;;;;;;18.20;99.90;;;;;;5073419;28;19954;-66
2022/10/18 12:37:29;;;;;;;;;;;18.20;99.90;;;;;;5073229;28;19908;-67
2022/10/18 12:39:58;;;;;;;;;;;18.30;99.90;;;;;;5073398;28;19933;-68
2022/10/18 12:42:30;;;;;;;;;;;18.20;99.90;;;;;;5073461;28;19923;-68
2022/10/18 12:45:01;;;;;;;;;;;18.20;99.90;;;;;;5073135;28;19908;-68
2022/10/18 12:47:29;;;;;;;;;;;18.20;99.90;;;;;;5072874;28;19916;-68
2022/10/18 12:49:59;;;;;;;;;;;18.30;99.90;;;;;;5073010;28;19913;-67
2022/10/18 12:52:28;;;;;;;;;;;18.20;99.90;;;;;;5072911;28;19912;-69
2022/10/18 12:55:06;;;;;;;;;;;18.30;99.90;;;;;;5072803;28;19909;-68
2022/10/18 12:57:50;;;;;;;;;;;18.30;99.90;;;;;;5072830;28;20016;-69
2022/10/18 13:00:29;;;;;;;;;;;18.30;99.90;;;;;;5072860;28;20384;-68
2022/10/18 13:03:18;;;;;;;;;;;18.30;99.90;;;;;;5072604;28;20274;-67
2022/10/18 13:05:51;;;;;;;;;;;18.20;99.90;;;;;;5035284;28;19922;-67
2022/10/18 13:08:27;;;;;;;;;;;18.30;99.90;;;;;;5072909;28;19915;-67
2022/10/18 13:11:09;;;;;;;;;;;18.20;99.90;;;;;;5072781;28;19938;-67
2022/10/18 13:13:51;;;;;;;;;;;18.20;99.90;;;;;;5072780;28;19916;-67
2022/10/18 13:16:36;;;;;;;;;;;18.20;99.90;;;;;;5072846;28;20046;-67
2022/10/18 13:19:21;;;;;;;;;;;18.10;99.90;;;;;;5054800;28;20353;-67
2022/10/18 13:22:05;;;;;;;;;;;18.10;99.90;;;;;;5072824;28;20293;-67
2022/10/18 13:24:39;;;;;;;;;;;18.00;99.90;;;;;;5072641;28;20313;-66
2022/10/18 13:27:14;;;;;;;;;;;18.00;99.90;;;;;;5072572;28;20365;-67
2022/10/18 13:29:41;;;;;;;;;;;18.00;99.90;;;;;;5072455;28;20053;-66
2022/10/18 13:32:30;;;;;;;;;;;18.00;99.90;;;;;;5072413;28;19919;-68
2022/10/18 13:34:57;;;;;;;;;;;18.00;99.90;;;;;;5072459;28;20470;-67
2022/10/18 13:37:24;;;;;;;;;;;18.00;99.90;;;;;;5072530;28;19958;-68
2022/10/18 13:40:11;;;;;;;;;;;18.00;99.90;;;;;;5072555;28;19912;-67
2022/10/18 13:42:38;;;;;;;;;;;17.90;99.90;;;;;;5072041;28;20389;-67
2022/10/18 13:45:22;;;;;;;;;;;18.00;99.90;;;;;;5072358;28;19920;-67
2022/10/18 13:47:49;;;;;;;;;;;17.90;99.90;;;;;;5072372;28;19909;-67
2022/10/18 13:50:26;;;;;;;;;;;18.00;99.90;;;;;;5072150;28;19962;-68
2022/10/18 13:53:10;;;;;;;;;;;18.00;99.90;;;;;;5072061;28;19947;-67
2022/10/18 13:55:43;;;;;;;;;;;18.00;99.90;;;;;;5072579;28;19909;-67
2022/10/18 13:58:09;;;;;;;;;;;18.00;99.90;;;;;;5072488;28;20361;-67
2022/10/18 14:00:54;;;;;;;;;;;18.00;99.90;;;;;;5071017;28;19919;-67
2022/10/18 14:03:37;;;;;;;;;;;18.00;99.90;;;;;;5072212;28;20093;-67
2022/10/18 14:06:04;;;;;;;;;;;18.00;99.90;;;;;;5072250;28;20012;-67
2022/10/18 14:08:31;;;;;;;;;;;17.90;99.90;;;;;;5072424;28;19988;-67
2022/10/18 14:11:21;;;;;;;;;;;17.90;99.90;;;;;;5072369;28;19936;-67
2022/10/18 14:14:03;;;;;;;;;;;18.00;99.90;;;;;;5072050;28;19916;-68
2022/10/18 14:16:39;;;;;;;;;;;17.90;99.90;;;;;;5072021;28;20316;-67
2022/10/18 14:19:12;;;;;;;;;;;18.00;99.90;;;;;;5072402;28;19915;-67
2022/10/18 14:21:39;;;;;;;;;;;17.90;99.90;;;;;;5072178;28;19963;-67
2022/10/18 14:24:14;;;;;;;;;;;18.00;99.90;;;;;;5072252;28;19916;-66
2022/10/18 14:26:41;;;;;;;;;;;18.00;99.90;;;;;;5071642;28;19912;-67
2022/10/18 14:29:15;;;;;;;;;;;17.90;99.90;;;;;;5072116;28;19908;-67
2022/10/18 14:31:42;;;;;;;;;;;17.90;99.90;;;;;;5071861;28;19908;-67
2022/10/18 14:34:14;;;;;;;;;;;17.90;99.90;;;;;;5071922;28;20383;-68
2022/10/18 14:36:41;;;;;;;;;;;17.80;99.90;;;;;;5073771;28;20007;-67